sensor_id;sensor_type;location;lat;lon;timestamp;temperature;humidity
54796;DHT22;40693;43.884;20.340;2023-04-24T00:00:55;409.60;2150.40
54796;DHT22;40693;43.884;20.340;2023-04-24T00:03:25;409.60;2176.00
54796;DHT22;40693;43.884;20.340;2023-04-24T00:05:56;409.60;2176.00
54796;DHT22;40693;43.884;20.340;2023-04-24T00:08:21;409.60;2201.60
54796;DHT22;40693;43.884;20.340;2023-04-24T00:10:50;409.60;2201.60
54796;DHT22;40693;43.884;20.340;2023-04-24T00:13:18;409.60;2201.60
54796;DHT22;40693;43.884;20.340;2023-04-24T00:15:43;384.90;2201.60
54796;DHT22;40693;43.884;20.340;2023-04-24T00:18:09;384.90;2201.60
54796;DHT22;40693;43.884;20.340;2023-04-24T00:20:36;384.90;2176.00
54796;DHT22;40693;43.884;20.340;2023-04-24T00:23:02;384.80;2201.60
54796;DHT22;40693;43.884;20.340;2023-04-24T00:25:27;384.80;2201.60
54796;DHT22;40693;43.884;20.340;2023-04-24T00:27:53;384.80;2201.60
54796;DHT22;40693;43.884;20.340;2023-04-24T00:30:19;384.80;2176.00
54796;DHT22;40693;43.884;20.340;2023-04-24T00:32:45;384.90;2150.40
54796;DHT22;40693;43.884;20.340;2023-04-24T00:35:10;384.80;2150.40
54796;DHT22;40693;43.884;20.340;2023-04-24T00:37:36;384.80;2150.40
54796;DHT22;40693;43.884;20.340;2023-04-24T00:40:02;384.90;2176.00
54796;DHT22;40693;43.884;20.340;2023-04-24T00:42:28;384.90;2176.00
54796;DHT22;40693;43.884;20.340;2023-04-24T00:44:54;384.80;2201.60
54796;DHT22;40693;43.884;20.340;2023-04-24T00:47:21;384.80;2227.20
54796;DHT22;40693;43.884;20.340;2023-04-24T00:49:47;384.70;2252.80
54796;DHT22;40693;43.884;20.340;2023-04-24T00:52:13;384.70;2278.40
54796;DHT22;40693;43.884;20.340;2023-04-24T00:54:44;384.80;2278.40
54796;DHT22;40693;43.884;20.340;2023-04-24T00:57:10;384.80;2278.40
54796;DHT22;40693;43.884;20.340;2023-04-24T00:59:36;384.80;2278.40
54796;DHT22;40693;43.884;20.340;2023-04-24T01:02:02;384.80;2329.60
54796;DHT22;40693;43.884;20.340;2023-04-24T01:04:28;384.80;2304.00
54796;DHT22;40693;43.884;20.340;2023-04-24T01:06:55;384.80;2304.00
54796;DHT22;40693;43.884;20.340;2023-04-24T01:09:23;384.60;2329.60
54796;DHT22;40693;43.884;20.340;2023-04-24T01:11:50;384.60;2329.60
54796;DHT22;40693;43.884;20.340;2023-04-24T01:14:16;384.50;2329.60
54796;DHT22;40693;43.884;20.340;2023-04-24T01:16:42;384.40;2329.60
54796;DHT22;40693;43.884;20.340;2023-04-24T01:19:07;384.40;2329.60
54796;DHT22;40693;43.884;20.340;2023-04-24T01:21:36;384.30;2329.60
54796;DHT22;40693;43.884;20.340;2023-04-24T01:24:03;384.30;2329.60
54796;DHT22;40693;43.884;20.340;2023-04-24T01:26:29;384.30;2329.60
54796;DHT22;40693;43.884;20.340;2023-04-24T01:28:56;384.30;2329.60
54796;DHT22;40693;43.884;20.340;2023-04-24T01:31:22;384.40;2329.60
54796;DHT22;40693;43.884;20.340;2023-04-24T01:33:48;384.40;2329.60
54796;DHT22;40693;43.884;20.340;2023-04-24T01:36:16;384.40;2329.60
54796;DHT22;40693;43.884;20.340;2023-04-24T01:38:42;384.40;2329.60
54796;DHT22;40693;43.884;20.340;2023-04-24T01:41:08;384.30;2329.60
54796;DHT22;40693;43.884;20.340;2023-04-24T01:43:33;384.30;2329.60
54796;DHT22;40693;43.884;20.340;2023-04-24T01:45:59;384.30;2329.60
54796;DHT22;40693;43.884;20.340;2023-04-24T01:48:25;384.20;2329.60
54796;DHT22;40693;43.884;20.340;2023-04-24T01:50:51;384.30;2329.60
54796;DHT22;40693;43.884;20.340;2023-04-24T01:53:17;384.30;2329.60
54796;DHT22;40693;43.884;20.340;2023-04-24T01:55:42;384.40;2329.60
54796;DHT22;40693;43.884;20.340;2023-04-24T01:58:08;384.30;2329.60
54796;DHT22;40693;43.884;20.340;2023-04-24T02:00:34;384.30;2329.60
54796;DHT22;40693;43.884;20.340;2023-04-24T02:03:00;384.30;2329.60
54796;DHT22;40693;43.884;20.340;2023-04-24T02:05:27;384.20;2329.60
54796;DHT22;40693;43.884;20.340;2023-04-24T02:07:53;384.10;2329.60
54796;DHT22;40693;43.884;20.340;2023-04-24T02:10:19;384.10;2329.60
54796;DHT22;40693;43.884;20.340;2023-04-24T02:12:44;359.30;2329.60
54796;DHT22;40693;43.884;20.340;2023-04-24T02:15:10;359.30;2329.60
54796;DHT22;40693;43.884;20.340;2023-04-24T02:17:37;359.30;2329.60
54796;DHT22;40693;43.884;20.340;2023-04-24T02:20:05;359.30;2329.60
54796;DHT22;40693;43.884;20.340;2023-04-24T02:22:30;359.30;2329.60
54796;DHT22;40693;43.884;20.340;2023-04-24T02:24:56;384.00;2329.60
54796;DHT22;40693;43.884;20.340;2023-04-24T02:27:22;384.00;2329.60
54796;DHT22;40693;43.884;20.340;2023-04-24T02:29:48;384.00;2329.60
54796;DHT22;40693;43.884;20.340;2023-04-24T02:32:13;384.10;2329.60
54796;DHT22;40693;43.884;20.340;2023-04-24T02:34:40;384.10;2329.60
54796;DHT22;40693;43.884;20.340;2023-04-24T02:37:06;384.10;2329.60
54796;DHT22;40693;43.884;20.340;2023-04-24T02:39:32;384.10;2329.60
54796;DHT22;40693;43.884;20.340;2023-04-24T02:41:57;384.10;2329.60
54796;DHT22;40693;43.884;20.340;2023-04-24T02:44:23;384.10;2329.60
54796;DHT22;40693;43.884;20.340;2023-04-24T02:46:49;384.10;2329.60
54796;DHT22;40693;43.884;20.340;2023-04-24T02:49:15;384.10;2329.60
54796;DHT22;40693;43.884;20.340;2023-04-24T02:51:40;384.10;2329.60
54796;DHT22;40693;43.884;20.340;2023-04-24T02:54:08;384.00;2329.60
54796;DHT22;40693;43.884;20.340;2023-04-24T02:56:35;359.30;2329.60
54796;DHT22;40693;43.884;20.340;2023-04-24T02:59:01;359.30;2329.60
54796;DHT22;40693;43.884;20.340;2023-04-24T03:01:26;359.10;2329.60
54796;DHT22;40693;43.884;20.340;2023-04-24T03:03:52;359.10;2329.60
54796;DHT22;40693;43.884;20.340;2023-04-24T03:06:18;359.00;2329.60
54796;DHT22;40693;43.884;20.340;2023-04-24T03:08:43;358.90;2329.60
54796;DHT22;40693;43.884;20.340;2023-04-24T03:11:09;358.80;2329.60
54796;DHT22;40693;43.884;20.340;2023-04-24T03:13:34;358.80;2329.60
54796;DHT22;40693;43.884;20.340;2023-04-24T03:16:00;358.90;2329.60
54796;DHT22;40693;43.884;20.340;2023-04-24T03:18:26;358.90;2329.60
54796;DHT22;40693;43.884;20.340;2023-04-24T03:20:51;358.90;2329.60
54796;DHT22;40693;43.884;20.340;2023-04-24T03:23:17;358.90;2329.60
54796;DHT22;40693;43.884;20.340;2023-04-24T03:25:43;358.90;2329.60
54796;DHT22;40693;43.884;20.340;2023-04-24T03:28:09;358.90;2329.60
54796;DHT22;40693;43.884;20.340;2023-04-24T03:30:34;358.90;2329.60
54796;DHT22;40693;43.884;20.340;2023-04-24T03:33:00;358.90;2329.60
54796;DHT22;40693;43.884;20.340;2023-04-24T03:35:26;358.90;2329.60
54796;DHT22;40693;43.884;20.340;2023-04-24T03:37:52;359.00;2329.60
54796;DHT22;40693;43.884;20.340;2023-04-24T03:40:17;358.90;2329.60
54796;DHT22;40693;43.884;20.340;2023-04-24T03:42:43;359.00;2329.60
54796;DHT22;40693;43.884;20.340;2023-04-24T03:45:09;359.00;2329.60
54796;DHT22;40693;43.884;20.340;2023-04-24T03:47:35;358.90;2329.60
54796;DHT22;40693;43.884;20.340;2023-04-24T03:50:01;358.90;2329.60
54796;DHT22;40693;43.884;20.340;2023-04-24T03:52:27;358.80;2329.60
54796;DHT22;40693;43.884;20.340;2023-04-24T03:54:53;358.80;2329.60
54796;DHT22;40693;43.884;20.340;2023-04-24T03:57:18;358.80;2329.60
54796;DHT22;40693;43.884;20.340;2023-04-24T03:59:44;358.80;2329.60
54796;DHT22;40693;43.884;20.340;2023-04-24T04:02:10;358.90;2329.60
54796;DHT22;40693;43.884;20.340;2023-04-24T04:04:35;358.90;2329.60
54796;DHT22;40693;43.884;20.340;2023-04-24T04:07:01;358.90;2329.60
54796;DHT22;40693;43.884;20.340;2023-04-24T04:09:28;358.90;2329.60
54796;DHT22;40693;43.884;20.340;2023-04-24T04:11:54;358.90;2329.60
54796;DHT22;40693;43.884;20.340;2023-04-24T04:14:21;358.80;2329.60
54796;DHT22;40693;43.884;20.340;2023-04-24T04:16:46;358.80;2329.60
54796;DHT22;40693;43.884;20.340;2023-04-24T04:19:12;358.70;2329.60
54796;DHT22;40693;43.884;20.340;2023-04-24T04:21:38;358.70;2329.60
54796;DHT22;40693;43.884;20.340;2023-04-24T04:24:04;358.60;2329.60
54796;DHT22;40693;43.884;20.340;2023-04-24T04:26:31;358.50;2329.60
54796;DHT22;40693;43.884;20.340;2023-04-24T04:28:58;358.50;2329.60
54796;DHT22;40693;43.884;20.340;2023-04-24T04:31:25;358.60;2329.60
54796;DHT22;40693;43.884;20.340;2023-04-24T04:33:51;358.60;2329.60
54796;DHT22;40693;43.884;20.340;2023-04-24T04:36:17;358.50;2329.60
54796;DHT22;40693;43.884;20.340;2023-04-24T04:38:43;358.50;2329.60
54796;DHT22;40693;43.884;20.340;2023-04-24T04:41:10;358.60;2329.60
54796;DHT22;40693;43.884;20.340;2023-04-24T04:43:36;358.60;2329.60
54796;DHT22;40693;43.884;20.340;2023-04-24T04:46:02;358.70;2329.60
54796;DHT22;40693;43.884;20.340;2023-04-24T04:48:28;358.80;2329.60
54796;DHT22;40693;43.884;20.340;2023-04-24T04:50:57;358.80;2329.60
54796;DHT22;40693;43.884;20.340;2023-04-24T04:53:22;358.90;2329.60
54796;DHT22;40693;43.884;20.340;2023-04-24T04:55:48;358.90;2329.60
54796;DHT22;40693;43.884;20.340;2023-04-24T04:58:14;358.90;2329.60
54796;DHT22;40693;43.884;20.340;2023-04-24T05:00:39;358.90;2329.60
54796;DHT22;40693;43.884;20.340;2023-04-24T05:03:07;359.00;2329.60
54796;DHT22;40693;43.884;20.340;2023-04-24T05:05:32;359.10;2329.60
54796;DHT22;40693;43.884;20.340;2023-04-24T05:07:58;359.20;2329.60
54796;DHT22;40693;43.884;20.340;2023-04-24T05:10:24;359.30;2329.60
54796;DHT22;40693;43.884;20.340;2023-04-24T05:12:50;359.30;2329.60
54796;DHT22;40693;43.884;20.340;2023-04-24T05:15:15;359.30;2329.60
54796;DHT22;40693;43.884;20.340;2023-04-24T05:17:41;359.30;2329.60
54796;DHT22;40693;43.884;20.340;2023-04-24T05:20:07;384.00;2329.60
54796;DHT22;40693;43.884;20.340;2023-04-24T05:22:33;384.10;2329.60
54796;DHT22;40693;43.884;20.340;2023-04-24T05:24:59;384.10;2329.60
54796;DHT22;40693;43.884;20.340;2023-04-24T05:27:25;384.20;2329.60
54796;DHT22;40693;43.884;20.340;2023-04-24T05:29:52;384.30;2329.60
54796;DHT22;40693;43.884;20.340;2023-04-24T05:32:18;384.30;2329.60
54796;DHT22;40693;43.884;20.340;2023-04-24T05:34:43;384.40;2329.60
54796;DHT22;40693;43.884;20.340;2023-04-24T05:37:09;384.40;2329.60
54796;DHT22;40693;43.884;20.340;2023-04-24T05:39:35;384.50;2329.60
54796;DHT22;40693;43.884;20.340;2023-04-24T05:42:02;384.50;2329.60
54796;DHT22;40693;43.884;20.340;2023-04-24T05:44:28;384.50;2329.60
54796;DHT22;40693;43.884;20.340;2023-04-24T05:46:54;384.60;2329.60
54796;DHT22;40693;43.884;20.340;2023-04-24T05:49:22;384.60;2329.60
54796;DHT22;40693;43.884;20.340;2023-04-24T05:51:48;384.80;2329.60
54796;DHT22;40693;43.884;20.340;2023-04-24T05:54:14;384.90;2329.60
54796;DHT22;40693;43.884;20.340;2023-04-24T05:56:40;409.60;2355.20
54796;DHT22;40693;43.884;20.340;2023-04-24T05:59:06;409.70;2355.20
54796;DHT22;40693;43.884;20.340;2023-04-24T06:01:32;409.70;2355.20
54796;DHT22;40693;43.884;20.340;2023-04-24T06:03:58;409.90;2355.20
54796;DHT22;40693;43.884;20.340;2023-04-24T06:06:24;410.00;2355.20
54796;DHT22;40693;43.884;20.340;2023-04-24T06:08:51;410.10;2355.20
54796;DHT22;40693;43.884;20.340;2023-04-24T06:11:17;410.20;2355.20
54796;DHT22;40693;43.884;20.340;2023-04-24T06:13:42;410.40;2355.20
54796;DHT22;40693;43.884;20.340;2023-04-24T06:16:08;410.50;2329.60
54796;DHT22;40693;43.884;20.340;2023-04-24T06:18:34;435.20;2304.00
54796;DHT22;40693;43.884;20.340;2023-04-24T06:21:00;435.30;2278.40
54796;DHT22;40693;43.884;20.340;2023-04-24T06:23:25;435.40;2227.20
54796;DHT22;40693;43.884;20.340;2023-04-24T06:25:51;435.50;2201.60
54796;DHT22;40693;43.884;20.340;2023-04-24T06:28:17;435.50;2201.60
54796;DHT22;40693;43.884;20.340;2023-04-24T06:30:43;435.60;2201.60
54796;DHT22;40693;43.884;20.340;2023-04-24T06:33:09;435.60;2201.60
54796;DHT22;40693;43.884;20.340;2023-04-24T06:35:36;435.70;2227.20
54796;DHT22;40693;43.884;20.340;2023-04-24T06:38:03;435.90;2227.20
54796;DHT22;40693;43.884;20.340;2023-04-24T06:40:29;436.10;2227.20
54796;DHT22;40693;43.884;20.340;2023-04-24T06:42:55;460.80;2252.80
54796;DHT22;40693;43.884;20.340;2023-04-24T06:45:21;461.00;2252.80
54796;DHT22;40693;43.884;20.340;2023-04-24T06:47:47;461.00;2201.60
54796;DHT22;40693;43.884;20.340;2023-04-24T06:50:13;461.20;2124.80
54796;DHT22;40693;43.884;20.340;2023-04-24T06:52:38;461.30;2124.80
54796;DHT22;40693;43.884;20.340;2023-04-24T06:55:05;461.50;2099.20
54796;DHT22;40693;43.884;20.340;2023-04-24T06:57:31;461.50;2099.20
54796;DHT22;40693;43.884;20.340;2023-04-24T06:59:57;461.70;2073.60
54796;DHT22;40693;43.884;20.340;2023-04-24T07:02:23;486.50;2048.00
54796;DHT22;40693;43.884;20.340;2023-04-24T07:04:48;486.60;2022.40
54796;DHT22;40693;43.884;20.340;2023-04-24T07:07:14;486.80;2022.40
54796;DHT22;40693;43.884;20.340;2023-04-24T07:09:41;486.90;1971.20
54796;DHT22;40693;43.884;20.340;2023-04-24T07:12:08;486.90;1971.20
54796;DHT22;40693;43.884;20.340;2023-04-24T07:14:34;487.10;1920.00
54796;DHT22;40693;43.884;20.340;2023-04-24T07:17:00;487.10;1868.80
54796;DHT22;40693;43.884;20.340;2023-04-24T07:19:26;487.20;1894.40
54796;DHT22;40693;43.884;20.340;2023-04-24T07:21:52;487.30;1920.00
54796;DHT22;40693;43.884;20.340;2023-04-24T07:24:19;487.30;1843.20
54796;DHT22;40693;43.884;20.340;2023-04-24T07:26:44;512.00;1817.60
54796;DHT22;40693;43.884;20.340;2023-04-24T07:29:12;512.10;1817.60
54796;DHT22;40693;43.884;20.340;2023-04-24T07:31:38;512.00;1843.20
54796;DHT22;40693;43.884;20.340;2023-04-24T07:34:04;487.30;1817.60
54796;DHT22;40693;43.884;20.340;2023-04-24T07:36:30;487.30;1817.60
54796;DHT22;40693;43.884;20.340;2023-04-24T07:38:55;487.20;1817.60
54796;DHT22;40693;43.884;20.340;2023-04-24T07:41:24;487.20;1817.60
54796;DHT22;40693;43.884;20.340;2023-04-24T07:43:50;487.30;1817.60
54796;DHT22;40693;43.884;20.340;2023-04-24T07:46:16;512.00;1817.60
54796;DHT22;40693;43.884;20.340;2023-04-24T07:48:42;487.30;1817.60
54796;DHT22;40693;43.884;20.340;2023-04-24T07:51:08;512.10;1817.60
54796;DHT22;40693;43.884;20.340;2023-04-24T07:53:36;512.20;1817.60
54796;DHT22;40693;43.884;20.340;2023-04-24T07:56:02;512.30;1817.60
54796;DHT22;40693;43.884;20.340;2023-04-24T07:58:27;512.30;1817.60
54796;DHT22;40693;43.884;20.340;2023-04-24T08:00:53;512.40;1817.60
54796;DHT22;40693;43.884;20.340;2023-04-24T08:03:19;512.50;1792.00
54796;DHT22;40693;43.884;20.340;2023-04-24T08:05:45;512.70;1740.80
54796;DHT22;40693;43.884;20.340;2023-04-24T08:08:11;512.70;1740.80
54796;DHT22;40693;43.884;20.340;2023-04-24T08:10:37;512.70;1740.80
54796;DHT22;40693;43.884;20.340;2023-04-24T08:13:02;512.90;1766.40
54796;DHT22;40693;43.884;20.340;2023-04-24T08:15:28;537.60;1766.40
54796;DHT22;40693;43.884;20.340;2023-04-24T08:17:54;537.60;1715.20
54796;DHT22;40693;43.884;20.340;2023-04-24T08:20:20;537.80;1715.20
54796;DHT22;40693;43.884;20.340;2023-04-24T08:22:46;538.00;1766.40
54796;DHT22;40693;43.884;20.340;2023-04-24T08:25:13;538.00;1740.80
54796;DHT22;40693;43.884;20.340;2023-04-24T08:27:39;538.00;1715.20
54796;DHT22;40693;43.884;20.340;2023-04-24T08:30:06;538.10;1689.60
54796;DHT22;40693;43.884;20.340;2023-04-24T08:32:32;538.10;1689.60
54796;DHT22;40693;43.884;20.340;2023-04-24T08:34:58;538.10;1689.60
54796;DHT22;40693;43.884;20.340;2023-04-24T08:37:25;538.10;1715.20
54796;DHT22;40693;43.884;20.340;2023-04-24T08:39:51;538.20;1689.60
54796;DHT22;40693;43.884;20.340;2023-04-24T08:42:18;538.10;1689.60
54796;DHT22;40693;43.884;20.340;2023-04-24T08:44:44;538.10;1664.00
54796;DHT22;40693;43.884;20.340;2023-04-24T08:47:11;538.20;1664.00
54796;DHT22;40693;43.884;20.340;2023-04-24T08:49:38;538.30;1664.00
54796;DHT22;40693;43.884;20.340;2023-04-24T08:52:05;538.30;1664.00
54796;DHT22;40693;43.884;20.340;2023-04-24T08:54:34;538.40;1638.40
54796;DHT22;40693;43.884;20.340;2023-04-24T08:57:01;563.20;1740.80
54796;DHT22;40693;43.884;20.340;2023-04-24T08:59:29;563.20;1689.60
54796;DHT22;40693;43.884;20.340;2023-04-24T09:01:56;563.30;1715.20
54796;DHT22;40693;43.884;20.340;2023-04-24T09:04:23;563.40;1638.40
54796;DHT22;40693;43.884;20.340;2023-04-24T09:06:57;563.50;1715.20
54796;DHT22;40693;43.884;20.340;2023-04-24T09:09:23;563.60;1740.80
54796;DHT22;40693;43.884;20.340;2023-04-24T09:11:50;563.60;1664.00
54796;DHT22;40693;43.884;20.340;2023-04-24T09:14:17;563.70;1689.60
54796;DHT22;40693;43.884;20.340;2023-04-24T09:16:43;563.80;1715.20
54796;DHT22;40693;43.884;20.340;2023-04-24T09:19:08;563.90;1740.80
54796;DHT22;40693;43.884;20.340;2023-04-24T09:21:35;563.90;1689.60
54796;DHT22;40693;43.884;20.340;2023-04-24T09:24:03;563.90;1689.60
54796;DHT22;40693;43.884;20.340;2023-04-24T09:26:31;563.90;1689.60
54796;DHT22;40693;43.884;20.340;2023-04-24T09:28:57;563.90;1689.60
54796;DHT22;40693;43.884;20.340;2023-04-24T09:31:23;563.90;1689.60
54796;DHT22;40693;43.884;20.340;2023-04-24T09:34:05;563.90;1664.00
54796;DHT22;40693;43.884;20.340;2023-04-24T09:36:38;563.90;1689.60
54796;DHT22;40693;43.884;20.340;2023-04-24T09:39:09;563.90;1715.20
54796;DHT22;40693;43.884;20.340;2023-04-24T09:41:44;563.90;1715.20
54796;DHT22;40693;43.884;20.340;2023-04-24T09:44:16;563.90;1740.80
54796;DHT22;40693;43.884;20.340;2023-04-24T09:46:42;563.80;1766.40
54796;DHT22;40693;43.884;20.340;2023-04-24T09:49:11;563.80;1740.80
54796;DHT22;40693;43.884;20.340;2023-04-24T09:51:38;563.90;1740.80
54796;DHT22;40693;43.884;20.340;2023-04-24T09:54:05;563.80;1715.20
54796;DHT22;40693;43.884;20.340;2023-04-24T09:56:36;563.80;1664.00
54796;DHT22;40693;43.884;20.340;2023-04-24T09:59:06;563.80;1664.00
54796;DHT22;40693;43.884;20.340;2023-04-24T10:01:32;563.80;1664.00
54796;DHT22;40693;43.884;20.340;2023-04-24T10:03:58;563.50;1664.00
54796;DHT22;40693;43.884;20.340;2023-04-24T10:06:33;563.70;1664.00
54796;DHT22;40693;43.884;20.340;2023-04-24T10:08:59;563.60;1689.60
54796;DHT22;40693;43.884;20.340;2023-04-24T10:11:28;563.60;1689.60
54796;DHT22;40693;43.884;20.340;2023-04-24T10:13:54;563.60;1689.60
54796;DHT22;40693;43.884;20.340;2023-04-24T10:16:21;563.60;1740.80
54796;DHT22;40693;43.884;20.340;2023-04-24T10:18:48;563.80;1664.00
54796;DHT22;40693;43.884;20.340;2023-04-24T10:21:15;564.00;1664.00
54796;DHT22;40693;43.884;20.340;2023-04-24T10:23:42;564.10;1638.40
54796;DHT22;40693;43.884;20.340;2023-04-24T10:26:09;588.80;1638.40
54796;DHT22;40693;43.884;20.340;2023-04-24T10:28:36;588.90;1561.60
54796;DHT22;40693;43.884;20.340;2023-04-24T10:31:02;589.20;1612.80
54796;DHT22;40693;43.884;20.340;2023-04-24T10:33:30;589.20;1561.60
54796;DHT22;40693;43.884;20.340;2023-04-24T10:35:57;589.50;1510.40
54796;DHT22;40693;43.884;20.340;2023-04-24T10:38:25;589.60;1561.60
54796;DHT22;40693;43.884;20.340;2023-04-24T10:41:06;614.40;1561.60
54796;DHT22;40693;43.884;20.340;2023-04-24T10:43:33;614.40;1484.80
54796;DHT22;40693;43.884;20.340;2023-04-24T10:46:03;614.40;1459.20
54796;DHT22;40693;43.884;20.340;2023-04-24T10:48:30;589.70;1459.20
54796;DHT22;40693;43.884;20.340;2023-04-24T10:50:56;589.70;1459.20
54796;DHT22;40693;43.884;20.340;2023-04-24T10:53:24;589.50;1484.80
54796;DHT22;40693;43.884;20.340;2023-04-24T10:56:03;589.50;1459.20
54796;DHT22;40693;43.884;20.340;2023-04-24T11:01:40;589.40;1510.40
54796;DHT22;40693;43.884;20.340;2023-04-24T11:04:11;589.40;1484.80
54796;DHT22;40693;43.884;20.340;2023-04-24T11:06:37;589.40;1459.20
54796;DHT22;40693;43.884;20.340;2023-04-24T11:11:31;589.00;1484.80
54796;DHT22;40693;43.884;20.340;2023-04-24T11:18:52;563.60;1587.20
54796;DHT22;40693;43.884;20.340;2023-04-24T11:21:25;563.50;1664.00
54796;DHT22;40693;43.884;20.340;2023-04-24T11:23:51;563.30;1766.40
54796;DHT22;40693;43.884;20.340;2023-04-24T11:26:22;537.90;1843.20
54796;DHT22;40693;43.884;20.340;2023-04-24T11:28:50;512.60;1945.60
54796;DHT22;40693;43.884;20.340;2023-04-24T11:31:54;487.30;2048.00
54796;DHT22;40693;43.884;20.340;2023-04-24T11:34:20;486.80;2124.80
54796;DHT22;40693;43.884;20.340;2023-04-24T11:36:46;486.60;2278.40
54796;DHT22;40693;43.884;20.340;2023-04-24T11:39:13;486.60;2380.80
54796;DHT22;40693;43.884;20.340;2023-04-24T11:41:39;486.60;2380.80
54796;DHT22;40693;43.884;20.340;2023-04-24T11:44:09;486.60;2380.80
54796;DHT22;40693;43.884;20.340;2023-04-24T11:46:35;486.60;2380.80
54796;DHT22;40693;43.884;20.340;2023-04-24T11:49:03;486.60;2380.80
54796;DHT22;40693;43.884;20.340;2023-04-24T11:51:28;486.60;2380.80
54796;DHT22;40693;43.884;20.340;2023-04-24T11:53:55;486.60;2380.80
54796;DHT22;40693;43.884;20.340;2023-04-24T11:56:23;486.60;2380.80
54796;DHT22;40693;43.884;20.340;2023-04-24T11:58:48;486.60;2380.80
54796;DHT22;40693;43.884;20.340;2023-04-24T12:01:14;486.60;2380.80
54796;DHT22;40693;43.884;20.340;2023-04-24T12:03:40;486.70;2380.80
54796;DHT22;40693;43.884;20.340;2023-04-24T12:06:11;486.80;2380.80
54796;DHT22;40693;43.884;20.340;2023-04-24T12:08:37;486.80;2380.80
54796;DHT22;40693;43.884;20.340;2023-04-24T12:11:05;486.80;2380.80
54796;DHT22;40693;43.884;20.340;2023-04-24T12:13:32;486.70;2380.80
54796;DHT22;40693;43.884;20.340;2023-04-24T12:15:58;486.60;2380.80
54796;DHT22;40693;43.884;20.340;2023-04-24T12:18:24;486.50;2380.80
54796;DHT22;40693;43.884;20.340;2023-04-24T12:20:50;461.50;2380.80
54796;DHT22;40693;43.884;20.340;2023-04-24T12:23:16;486.50;2380.80
54796;DHT22;40693;43.884;20.340;2023-04-24T12:25:43;486.40;2380.80
54796;DHT22;40693;43.884;20.340;2023-04-24T12:28:12;461.70;2380.80
54796;DHT22;40693;43.884;20.340;2023-04-24T12:30:51;461.70;2380.80
54796;DHT22;40693;43.884;20.340;2023-04-24T12:33:18;461.60;2380.80
54796;DHT22;40693;43.884;20.340;2023-04-24T12:35:45;461.50;2380.80
54796;DHT22;40693;43.884;20.340;2023-04-24T12:38:21;461.30;2380.80
54796;DHT22;40693;43.884;20.340;2023-04-24T12:40:46;461.30;2380.80
54796;DHT22;40693;43.884;20.340;2023-04-24T12:45:39;461.20;2380.80
54796;DHT22;40693;43.884;20.340;2023-04-24T12:48:04;461.00;2380.80
54796;DHT22;40693;43.884;20.340;2023-04-24T12:50:30;461.00;2380.80
54796;DHT22;40693;43.884;20.340;2023-04-24T12:52:56;461.00;2380.80
54796;DHT22;40693;43.884;20.340;2023-04-24T12:55:22;461.00;2380.80
54796;DHT22;40693;43.884;20.340;2023-04-24T12:57:47;461.00;2380.80
54796;DHT22;40693;43.884;20.340;2023-04-24T13:00:15;461.00;2380.80
54796;DHT22;40693;43.884;20.340;2023-04-24T13:02:40;461.00;2380.80
54796;DHT22;40693;43.884;20.340;2023-04-24T13:05:06;460.90;2380.80
54796;DHT22;40693;43.884;20.340;2023-04-24T13:07:32;460.80;2380.80
54796;DHT22;40693;43.884;20.340;2023-04-24T13:09:58;460.80;2380.80
54796;DHT22;40693;43.884;20.340;2023-04-24T13:12:24;436.10;2355.20
54796;DHT22;40693;43.884;20.340;2023-04-24T13:14:51;436.10;2355.20
54796;DHT22;40693;43.884;20.340;2023-04-24T13:17:16;460.80;2380.80
54796;DHT22;40693;43.884;20.340;2023-04-24T13:19:43;461.00;2380.80
54796;DHT22;40693;43.884;20.340;2023-04-24T13:22:10;460.90;2380.80
54796;DHT22;40693;43.884;20.340;2023-04-24T13:24:36;461.00;2380.80
54796;DHT22;40693;43.884;20.340;2023-04-24T13:27:03;461.20;2380.80
54796;DHT22;40693;43.884;20.340;2023-04-24T13:29:28;461.30;2380.80
54796;DHT22;40693;43.884;20.340;2023-04-24T13:31:55;461.30;2380.80
54796;DHT22;40693;43.884;20.340;2023-04-24T13:34:24;461.30;2380.80
54796;DHT22;40693;43.884;20.340;2023-04-24T13:36:52;461.40;2380.80
54796;DHT22;40693;43.884;20.340;2023-04-24T13:39:18;461.50;2380.80
54796;DHT22;40693;43.884;20.340;2023-04-24T13:41:43;461.50;2380.80
54796;DHT22;40693;43.884;20.340;2023-04-24T13:44:10;461.50;2380.80
54796;DHT22;40693;43.884;20.340;2023-04-24T13:46:35;461.50;2380.80
54796;DHT22;40693;43.884;20.340;2023-04-24T13:49:02;461.60;2380.80
54796;DHT22;40693;43.884;20.340;2023-04-24T13:51:29;461.60;2380.80
54796;DHT22;40693;43.884;20.340;2023-04-24T13:53:57;461.40;2380.80
54796;DHT22;40693;43.884;20.340;2023-04-24T13:56:22;461.70;2380.80
54796;DHT22;40693;43.884;20.340;2023-04-24T13:58:48;461.70;2380.80
54796;DHT22;40693;43.884;20.340;2023-04-24T14:01:14;486.40;2380.80
54796;DHT22;40693;43.884;20.340;2023-04-24T14:03:41;486.40;2380.80
54796;DHT22;40693;43.884;20.340;2023-04-24T14:06:07;486.40;2380.80
54796;DHT22;40693;43.884;20.340;2023-04-24T14:08:33;486.50;2380.80
54796;DHT22;40693;43.884;20.340;2023-04-24T14:10:58;486.50;2380.80
54796;DHT22;40693;43.884;20.340;2023-04-24T14:13:24;486.40;2380.80
54796;DHT22;40693;43.884;20.340;2023-04-24T14:15:51;486.40;2380.80
54796;DHT22;40693;43.884;20.340;2023-04-24T14:18:18;486.40;2380.80
54796;DHT22;40693;43.884;20.340;2023-04-24T14:20:44;461.70;2380.80
54796;DHT22;40693;43.884;20.340;2023-04-24T14:23:10;461.70;2380.80
54796;DHT22;40693;43.884;20.340;2023-04-24T14:25:35;461.70;2380.80
54796;DHT22;40693;43.884;20.340;2023-04-24T14:28:01;461.70;2380.80
54796;DHT22;40693;43.884;20.340;2023-04-24T14:30:27;461.70;2380.80
54796;DHT22;40693;43.884;20.340;2023-04-24T14:32:53;461.60;2380.80
54796;DHT22;40693;43.884;20.340;2023-04-24T14:35:19;461.60;2380.80
54796;DHT22;40693;43.884;20.340;2023-04-24T14:37:44;461.60;2380.80
54796;DHT22;40693;43.884;20.340;2023-04-24T14:40:10;461.60;2380.80
54796;DHT22;40693;43.884;20.340;2023-04-24T14:42:36;461.70;2380.80
54796;DHT22;40693;43.884;20.340;2023-04-24T14:45:02;461.70;2380.80